sensor_id;sensor_type;location;lat;lon;timestamp;pressure;altitude;pressure_sealevel;temperature;humidity
58223;BME280;44020;50.890;15.796;2024-02-23T00:01:03;95191.55;;;9.81;87.67
58223;BME280;44020;50.890;15.796;2024-02-23T00:03:59;95191.52;;;9.81;88.08
58223;BME280;44020;50.890;15.796;2024-02-23T00:06:26;95187.83;;;9.81;88.14
58223;BME280;44020;50.890;15.796;2024-02-23T00:08:55;95181.88;;;9.82;88.31
58223;BME280;44020;50.890;15.796;2024-02-23T00:11:33;95187.80;;;9.83;88.47
58223;BME280;44020;50.890;15.796;2024-02-23T00:16:59;95198.34;;;9.84;88.47
58223;BME280;44020;50.890;15.796;2024-02-23T00:19:36;95193.76;;;9.85;88.68
58223;BME280;44020;50.890;15.796;2024-02-23T00:22:07;95190.27;;;9.86;88.49
58223;BME280;44020;50.890;15.796;2024-02-23T00:24:39;95201.60;;;9.88;88.33
58223;BME280;44020;50.890;15.796;2024-02-23T00:27:09;95195.76;;;9.90;88.11
58223;BME280;44020;50.890;15.796;2024-02-23T00:29:39;95199.11;;;9.92;88.17
58223;BME280;44020;50.890;15.796;2024-02-23T00:32:08;95192.95;;;9.92;88.23
58223;BME280;44020;50.890;15.796;2024-02-23T00:34:35;95184.65;;;9.94;87.89
58223;BME280;44020;50.890;15.796;2024-02-23T00:37:16;95189.40;;;9.96;87.93
58223;BME280;44020;50.890;15.796;2024-02-23T00:39:47;95175.61;;;9.97;88.00
58223;BME280;44020;50.890;15.796;2024-02-23T00:42:37;95157.24;;;9.96;88.05
58223;BME280;44020;50.890;15.796;2024-02-23T00:45:09;95165.73;;;9.95;87.84
58223;BME280;44020;50.890;15.796;2024-02-23T00:47:36;95177.30;;;9.95;87.86
58223;BME280;44020;50.890;15.796;2024-02-23T00:50:05;95176.79;;;9.94;87.89
58223;BME280;44020;50.890;15.796;2024-02-23T00:52:42;95184.77;;;9.94;87.79
58223;BME280;44020;50.890;15.796;2024-02-23T00:55:10;95172.94;;;9.94;87.82
58223;BME280;44020;50.890;15.796;2024-02-23T00:58:06;95169.52;;;9.94;87.70
58223;BME280;44020;50.890;15.796;2024-02-23T01:00:45;95156.08;;;9.97;87.72
58223;BME280;44020;50.890;15.796;2024-02-23T01:03:22;95151.85;;;10.00;87.58
58223;BME280;44020;50.890;15.796;2024-02-23T01:05:53;95155.35;;;10.04;87.54
58223;BME280;44020;50.890;15.796;2024-02-23T01:11:03;95145.66;;;10.10;87.28
58223;BME280;44020;50.890;15.796;2024-02-23T01:13:30;95144.66;;;10.13;87.37
58223;BME280;44020;50.890;15.796;2024-02-23T01:16:07;95148.42;;;10.16;87.35
58223;BME280;44020;50.890;15.796;2024-02-23T01:18:35;95145.64;;;10.18;87.21
58223;BME280;44020;50.890;15.796;2024-02-23T01:21:03;95149.02;;;10.20;86.98
58223;BME280;44020;50.890;15.796;2024-02-23T01:23:34;95147.70;;;10.22;86.91
58223;BME280;44020;50.890;15.796;2024-02-23T01:26:01;95141.92;;;10.25;86.65
58223;BME280;44020;50.890;15.796;2024-02-23T01:28:30;95138.87;;;10.27;86.76
58223;BME280;44020;50.890;15.796;2024-02-23T01:31:04;95141.20;;;10.28;86.48
58223;BME280;44020;50.890;15.796;2024-02-23T01:33:34;95144.02;;;10.30;86.42
58223;BME280;44020;50.890;15.796;2024-02-23T01:36:11;95151.05;;;10.33;86.14
58223;BME280;44020;50.890;15.796;2024-02-23T01:39:07;95151.11;;;10.35;86.04
58223;BME280;44020;50.890;15.796;2024-02-23T01:41:35;95154.38;;;10.36;85.85
58223;BME280;44020;50.890;15.796;2024-02-23T01:44:37;95154.48;;;10.37;85.73
58223;BME280;44020;50.890;15.796;2024-02-23T01:47:04;95168.37;;;10.38;85.80
58223;BME280;44020;50.890;15.796;2024-02-23T01:49:53;95169.17;;;10.39;85.35
58223;BME280;44020;50.890;15.796;2024-02-23T01:52:33;95178.65;;;10.40;85.34
58223;BME280;44020;50.890;15.796;2024-02-23T01:55:01;95186.60;;;10.40;85.18
58223;BME280;44020;50.890;15.796;2024-02-23T01:57:47;95193.49;;;10.42;84.89
58223;BME280;44020;50.890;15.796;2024-02-23T02:00:17;95187.10;;;10.42;84.90
58223;BME280;44020;50.890;15.796;2024-02-23T02:02:45;95189.57;;;10.42;84.94
58223;BME280;44020;50.890;15.796;2024-02-23T02:05:16;95192.99;;;10.41;84.76
58223;BME280;44020;50.890;15.796;2024-02-23T02:07:54;95186.56;;;10.42;84.72
58223;BME280;44020;50.890;15.796;2024-02-23T02:10:26;95177.55;;;10.41;84.75
58223;BME280;44020;50.890;15.796;2024-02-23T02:13:10;95166.61;;;10.41;84.49
58223;BME280;44020;50.890;15.796;2024-02-23T02:15:41;95156.77;;;10.40;84.23
58223;BME280;44020;50.890;15.796;2024-02-23T02:18:16;95156.66;;;10.39;84.20
58223;BME280;44020;50.890;15.796;2024-02-23T02:20:51;95149.56;;;10.39;84.05
58223;BME280;44020;50.890;15.796;2024-02-23T02:23:23;95150.20;;;10.38;83.91
58223;BME280;44020;50.890;15.796;2024-02-23T02:25:57;95146.61;;;10.39;84.24
58223;BME280;44020;50.890;15.796;2024-02-23T02:28:36;95150.90;;;10.38;84.18
58223;BME280;44020;50.890;15.796;2024-02-23T02:31:04;95144.64;;;10.37;84.16
58223;BME280;44020;50.890;15.796;2024-02-23T02:33:38;95130.07;;;10.38;84.32
58223;BME280;44020;50.890;15.796;2024-02-23T02:36:07;95116.79;;;10.39;84.00
58223;BME280;44020;50.890;15.796;2024-02-23T02:38:44;95116.55;;;10.41;83.91
58223;BME280;44020;50.890;15.796;2024-02-23T02:41:22;95122.30;;;10.42;83.75
58223;BME280;44020;50.890;15.796;2024-02-23T02:43:55;95140.16;;;10.44;83.46
58223;BME280;44020;50.890;15.796;2024-02-23T02:46:43;95149.59;;;10.46;83.45
58223;BME280;44020;50.890;15.796;2024-02-23T02:49:30;95142.56;;;10.48;82.95
58223;BME280;44020;50.890;15.796;2024-02-23T02:52:10;95144.67;;;10.51;82.75
58223;BME280;44020;50.890;15.796;2024-02-23T02:54:37;95154.36;;;10.54;82.57
58223;BME280;44020;50.890;15.796;2024-02-23T02:57:25;95150.49;;;10.55;82.46
58223;BME280;44020;50.890;15.796;2024-02-23T03:00:00;95162.05;;;10.56;82.41
58223;BME280;44020;50.890;15.796;2024-02-23T03:02:31;95183.61;;;10.57;82.37
58223;BME280;44020;50.890;15.796;2024-02-23T03:04:59;95191.36;;;10.58;82.25
58223;BME280;44020;50.890;15.796;2024-02-23T03:07:27;95200.20;;;10.58;82.16
58223;BME280;44020;50.890;15.796;2024-02-23T03:09:57;95206.48;;;10.57;81.77
58223;BME280;44020;50.890;15.796;2024-02-23T03:12:36;95211.42;;;10.56;81.87
58223;BME280;44020;50.890;15.796;2024-02-23T03:15:28;95213.48;;;10.55;81.97
58223;BME280;44020;50.890;15.796;2024-02-23T03:18:06;95222.46;;;10.53;81.99
58223;BME280;44020;50.890;15.796;2024-02-23T03:20:37;95238.12;;;10.52;81.91
58223;BME280;44020;50.890;15.796;2024-02-23T03:23:05;95247.23;;;10.52;81.92
58223;BME280;44020;50.890;15.796;2024-02-23T03:25:35;95256.25;;;10.51;81.92
58223;BME280;44020;50.890;15.796;2024-02-23T03:28:03;95257.42;;;10.50;81.81
58223;BME280;44020;50.890;15.796;2024-02-23T03:30:30;95277.16;;;10.49;81.94
58223;BME280;44020;50.890;15.796;2024-02-23T03:33:16;95281.27;;;10.48;81.55
58223;BME280;44020;50.890;15.796;2024-02-23T03:41:54;95311.05;;;10.45;81.08
58223;BME280;44020;50.890;15.796;2024-02-23T03:44:25;95317.20;;;10.45;80.61
58223;BME280;44020;50.890;15.796;2024-02-23T03:46:53;95318.51;;;10.45;80.12
58223;BME280;44020;50.890;15.796;2024-02-23T03:49:51;95320.70;;;10.42;79.90
58223;BME280;44020;50.890;15.796;2024-02-23T03:52:22;95304.59;;;10.42;79.83
58223;BME280;44020;50.890;15.796;2024-02-23T03:54:52;95300.48;;;10.40;79.65
58223;BME280;44020;50.890;15.796;2024-02-23T03:57:24;95307.71;;;10.38;79.19
58223;BME280;44020;50.890;15.796;2024-02-23T03:59:55;95307.42;;;10.35;79.10
58223;BME280;44020;50.890;15.796;2024-02-23T04:02:45;95306.75;;;10.33;79.23
58223;BME280;44020;50.890;15.796;2024-02-23T04:05:16;95317.88;;;10.33;78.75
58223;BME280;44020;50.890;15.796;2024-02-23T04:07:53;95319.73;;;10.32;78.18
58223;BME280;44020;50.890;15.796;2024-02-23T04:10:30;95320.67;;;10.30;78.09
58223;BME280;44020;50.890;15.796;2024-02-23T04:13:06;95330.14;;;10.29;78.13
58223;BME280;44020;50.890;15.796;2024-02-23T04:15:36;95336.13;;;10.27;77.42
58223;BME280;44020;50.890;15.796;2024-02-23T04:18:11;95344.58;;;10.26;77.71
58223;BME280;44020;50.890;15.796;2024-02-23T04:20:39;95340.52;;;10.25;77.29
58223;BME280;44020;50.890;15.796;2024-02-23T04:23:06;95343.21;;;10.24;77.50
58223;BME280;44020;50.890;15.796;2024-02-23T04:25:34;95351.89;;;10.23;77.27
58223;BME280;44020;50.890;15.796;2024-02-23T04:28:30;95356.77;;;10.20;77.28
58223;BME280;44020;50.890;15.796;2024-02-23T04:30:59;95368.28;;;10.18;77.18
58223;BME280;44020;50.890;15.796;2024-02-23T04:33:27;95381.27;;;10.17;77.27
58223;BME280;44020;50.890;15.796;2024-02-23T04:36:04;95380.16;;;10.15;77.18
58223;BME280;44020;50.890;15.796;2024-02-23T04:38:33;95387.81;;;10.14;77.20
58223;BME280;44020;50.890;15.796;2024-02-23T04:41:15;95397.35;;;10.11;77.17
58223;BME280;44020;50.890;15.796;2024-02-23T04:43:49;95410.81;;;10.11;77.11
58223;BME280;44020;50.890;15.796;2024-02-23T04:46:17;95412.58;;;10.09;76.81
58223;BME280;44020;50.890;15.796;2024-02-23T04:48:44;95420.30;;;10.08;76.73
58223;BME280;44020;50.890;15.796;2024-02-23T04:51:21;95418.72;;;10.06;76.56
58223;BME280;44020;50.890;15.796;2024-02-23T04:53:57;95424.31;;;10.06;76.08
58223;BME280;44020;50.890;15.796;2024-02-23T04:56:27;95425.83;;;10.05;75.48
58223;BME280;44020;50.890;15.796;2024-02-23T04:58:57;95431.45;;;10.03;75.22
58223;BME280;44020;50.890;15.796;2024-02-23T05:01:25;95428.59;;;10.02;75.11
58223;BME280;44020;50.890;15.796;2024-02-23T05:03:54;95436.09;;;10.01;74.85
58223;BME280;44020;50.890;15.796;2024-02-23T05:06:22;95442.95;;;10.00;74.54
58223;BME280;44020;50.890;15.796;2024-02-23T05:08:53;95450.25;;;9.98;74.11
58223;BME280;44020;50.890;15.796;2024-02-23T05:11:20;95470.50;;;9.96;73.92
58223;BME280;44020;50.890;15.796;2024-02-23T05:13:48;95464.15;;;9.96;73.45
58223;BME280;44020;50.890;15.796;2024-02-23T05:16:16;95465.13;;;9.93;73.00
58223;BME280;44020;50.890;15.796;2024-02-23T05:18:50;95478.11;;;9.90;73.31
58223;BME280;44020;50.890;15.796;2024-02-23T05:21:20;95477.34;;;9.89;73.25
58223;BME280;44020;50.890;15.796;2024-02-23T05:23:59;95479.97;;;9.87;73.32
58223;BME280;44020;50.890;15.796;2024-02-23T05:26:29;95501.48;;;9.85;73.54
58223;BME280;44020;50.890;15.796;2024-02-23T05:29:02;95513.33;;;9.84;73.49
58223;BME280;44020;50.890;15.796;2024-02-23T05:31:55;95516.05;;;9.81;73.50
58223;BME280;44020;50.890;15.796;2024-02-23T05:34:22;95521.65;;;9.78;73.36
58223;BME280;44020;50.890;15.796;2024-02-23T05:36:50;95517.29;;;9.76;73.24
58223;BME280;44020;50.890;15.796;2024-02-23T05:39:21;95525.25;;;9.74;73.32
58223;BME280;44020;50.890;15.796;2024-02-23T05:41:51;95527.60;;;9.72;73.26
58223;BME280;44020;50.890;15.796;2024-02-23T05:44:43;95531.10;;;9.69;73.50
58223;BME280;44020;50.890;15.796;2024-02-23T05:47:31;95532.44;;;9.65;73.51
58223;BME280;44020;50.890;15.796;2024-02-23T05:53:35;95528.45;;;9.60;73.09
58223;BME280;44020;50.890;15.796;2024-02-23T05:56:05;95533.16;;;9.59;72.93
58223;BME280;44020;50.890;15.796;2024-02-23T05:58:36;95534.21;;;9.58;72.95
58223;BME280;44020;50.890;15.796;2024-02-23T06:01:15;95546.66;;;9.55;72.84
58223;BME280;44020;50.890;15.796;2024-02-23T06:03:43;95556.38;;;9.56;72.03
58223;BME280;44020;50.890;15.796;2024-02-23T06:06:12;95565.58;;;9.51;71.54
58223;BME280;44020;50.890;15.796;2024-02-23T06:09:00;95576.58;;;9.47;71.90
58223;BME280;44020;50.890;15.796;2024-02-23T06:11:27;95588.97;;;9.46;71.99
58223;BME280;44020;50.890;15.796;2024-02-23T06:13:58;95590.57;;;9.44;71.73
58223;BME280;44020;50.890;15.796;2024-02-23T06:16:25;95594.13;;;9.40;71.85
58223;BME280;44020;50.890;15.796;2024-02-23T06:18:55;95603.09;;;9.39;71.95
58223;BME280;44020;50.890;15.796;2024-02-23T06:21:22;95614.38;;;9.38;71.99
58223;BME280;44020;50.890;15.796;2024-02-23T06:23:50;95618.19;;;9.37;72.25
58223;BME280;44020;50.890;15.796;2024-02-23T06:26:17;95617.86;;;9.36;72.45
58223;BME280;44020;50.890;15.796;2024-02-23T06:28:44;95617.66;;;9.37;72.53
58223;BME280;44020;50.890;15.796;2024-02-23T06:31:12;95615.17;;;9.37;72.68
58223;BME280;44020;50.890;15.796;2024-02-23T06:33:43;95613.27;;;9.36;72.86
58223;BME280;44020;50.890;15.796;2024-02-23T06:36:10;95611.50;;;9.36;73.14
58223;BME280;44020;50.890;15.796;2024-02-23T06:38:40;95611.75;;;9.37;73.35
58223;BME280;44020;50.890;15.796;2024-02-23T06:41:08;95613.73;;;9.39;73.20
58223;BME280;44020;50.890;15.796;2024-02-23T06:43:38;95618.45;;;9.40;73.16
58223;BME280;44020;50.890;15.796;2024-02-23T06:46:09;95617.74;;;9.40;73.08
58223;BME280;44020;50.890;15.796;2024-02-23T06:48:41;95619.53;;;9.37;73.05
58223;BME280;44020;50.890;15.796;2024-02-23T06:51:09;95622.39;;;9.37;73.13
58223;BME280;44020;50.890;15.796;2024-02-23T06:53:36;95631.73;;;9.38;73.12
58223;BME280;44020;50.890;15.796;2024-02-23T06:56:05;95637.54;;;9.38;73.06
58223;BME280;44020;50.890;15.796;2024-02-23T06:58:32;95641.04;;;9.39;72.94
58223;BME280;44020;50.890;15.796;2024-02-23T07:01:01;95647.53;;;9.40;72.83
58223;BME280;44020;50.890;15.796;2024-02-23T07:03:30;95649.75;;;9.40;72.83
58223;BME280;44020;50.890;15.796;2024-02-23T07:05:58;95660.19;;;9.41;72.48
58223;BME280;44020;50.890;15.796;2024-02-23T07:08:29;95668.80;;;9.40;72.30
58223;BME280;44020;50.890;15.796;2024-02-23T07:10:57;95675.30;;;9.38;72.33
58223;BME280;44020;50.890;15.796;2024-02-23T07:13:24;95683.13;;;9.38;72.26
58223;BME280;44020;50.890;15.796;2024-02-23T07:16:12;95690.92;;;9.36;72.09
58223;BME280;44020;50.890;15.796;2024-02-23T07:18:40;95697.86;;;9.36;72.35
58223;BME280;44020;50.890;15.796;2024-02-23T07:21:08;95699.29;;;9.36;72.41
58223;BME280;44020;50.890;15.796;2024-02-23T07:23:35;95698.31;;;9.35;72.32
58223;BME280;44020;50.890;15.796;2024-02-23T07:26:03;95700.27;;;9.35;72.33
58223;BME280;44020;50.890;15.796;2024-02-23T07:28:30;95703.54;;;9.34;72.50
58223;BME280;44020;50.890;15.796;2024-02-23T07:30:57;95708.61;;;9.34;72.34
58223;BME280;44020;50.890;15.796;2024-02-23T07:33:24;95710.86;;;9.33;72.07
58223;BME280;44020;50.890;15.796;2024-02-23T07:35:52;95710.10;;;9.34;72.00
58223;BME280;44020;50.890;15.796;2024-02-23T07:38:20;95706.23;;;9.33;71.85
58223;BME280;44020;50.890;15.796;2024-02-23T07:40:47;95714.03;;;9.33;71.82
58223;BME280;44020;50.890;15.796;2024-02-23T07:43:14;95721.62;;;9.35;71.80
58223;BME280;44020;50.890;15.796;2024-02-23T07:45:41;95724.30;;;9.35;71.39
58223;BME280;44020;50.890;15.796;2024-02-23T07:48:10;95730.35;;;9.35;71.58
58223;BME280;44020;50.890;15.796;2024-02-23T07:50:37;95737.48;;;9.36;71.57
58223;BME280;44020;50.890;15.796;2024-02-23T07:53:05;95737.67;;;9.36;71.13
58223;BME280;44020;50.890;15.796;2024-02-23T07:55:35;95741.59;;;9.34;71.21
58223;BME280;44020;50.890;15.796;2024-02-23T07:58:02;95738.20;;;9.35;70.89
58223;BME280;44020;50.890;15.796;2024-02-23T08:00:29;95742.88;;;9.34;70.58
58223;BME280;44020;50.890;15.796;2024-02-23T08:02:57;95751.30;;;9.35;70.68
58223;BME280;44020;50.890;15.796;2024-02-23T08:05:26;95757.77;;;9.36;70.27
58223;BME280;44020;50.890;15.796;2024-02-23T08:07:53;95763.16;;;9.36;70.13
58223;BME280;44020;50.890;15.796;2024-02-23T08:10:20;95767.45;;;9.36;69.86
58223;BME280;44020;50.890;15.796;2024-02-23T08:16:29;95783.34;;;9.37;69.44
58223;BME280;44020;50.890;15.796;2024-02-23T08:19:02;95781.34;;;9.36;69.44
58223;BME280;44020;50.890;15.796;2024-02-23T08:21:29;95780.94;;;9.36;69.34
58223;BME280;44020;50.890;15.796;2024-02-23T08:24:10;95788.77;;;9.36;69.23
58223;BME280;44020;50.890;15.796;2024-02-23T08:26:49;95797.92;;;9.36;68.87
58223;BME280;44020;50.890;15.796;2024-02-23T08:29:26;95797.40;;;9.36;68.67
58223;BME280;44020;50.890;15.796;2024-02-23T08:31:54;95802.10;;;9.35;68.56
58223;BME280;44020;50.890;15.796;2024-02-23T08:34:26;95813.56;;;9.36;68.53
58223;BME280;44020;50.890;15.796;2024-02-23T08:36:53;95816.65;;;9.37;68.56
58223;BME280;44020;50.890;15.796;2024-02-23T08:39:21;95816.11;;;9.39;68.34
58223;BME280;44020;50.890;15.796;2024-02-23T08:41:49;95810.20;;;9.40;68.17
58223;BME280;44020;50.890;15.796;2024-02-23T08:44:19;95815.21;;;9.41;68.18
58223;BME280;44020;50.890;15.796;2024-02-23T08:46:47;95819.82;;;9.41;67.90
58223;BME280;44020;50.890;15.796;2024-02-23T08:49:14;95820.02;;;9.41;68.06
58223;BME280;44020;50.890;15.796;2024-02-23T08:51:42;95820.71;;;9.41;67.91
58223;BME280;44020;50.890;15.796;2024-02-23T08:54:09;95828.48;;;9.41;67.97
58223;BME280;44020;50.890;15.796;2024-02-23T08:56:37;95832.66;;;9.41;67.99
58223;BME280;44020;50.890;15.796;2024-02-23T08:59:09;95833.48;;;9.39;67.91
58223;BME280;44020;50.890;15.796;2024-02-23T09:01:36;95831.23;;;9.36;67.70
58223;BME280;44020;50.890;15.796;2024-02-23T09:04:04;95840.92;;;9.33;67.68
58223;BME280;44020;50.890;15.796;2024-02-23T09:06:30;95846.02;;;9.32;67.75
58223;BME280;44020;50.890;15.796;2024-02-23T09:08:59;95848.58;;;9.29;67.76
58223;BME280;44020;50.890;15.796;2024-02-23T09:11:27;95852.76;;;9.27;67.74
58223;BME280;44020;50.890;15.796;2024-02-23T09:13:55;95862.09;;;9.23;67.70
58223;BME280;44020;50.890;15.796;2024-02-23T09:16:22;95861.55;;;9.19;67.81
58223;BME280;44020;50.890;15.796;2024-02-23T09:18:51;95862.52;;;9.19;68.04
58223;BME280;44020;50.890;15.796;2024-02-23T09:21:20;95857.08;;;9.20;68.20
58223;BME280;44020;50.890;15.796;2024-02-23T09:23:48;95864.62;;;9.23;68.35
58223;BME280;44020;50.890;15.796;2024-02-23T09:26:15;95869.13;;;9.26;68.30
58223;BME280;44020;50.890;15.796;2024-02-23T09:28:42;95868.65;;;9.25;68.18
58223;BME280;44020;50.890;15.796;2024-02-23T09:31:11;95867.55;;;9.24;68.38
58223;BME280;44020;50.890;15.796;2024-02-23T09:33:39;95872.98;;;9.26;68.58
58223;BME280;44020;50.890;15.796;2024-02-23T09:36:06;95869.00;;;9.29;68.39
58223;BME280;44020;50.890;15.796;2024-02-23T09:38:33;95867.86;;;9.28;68.36
58223;BME280;44020;50.890;15.796;2024-02-23T09:41:29;95866.35;;;9.27;68.35
58223;BME280;44020;50.890;15.796;2024-02-23T09:43:58;95862.66;;;9.27;68.44
58223;BME280;44020;50.890;15.796;2024-02-23T09:46:26;95854.39;;;9.26;68.39
58223;BME280;44020;50.890;15.796;2024-02-23T09:48:55;95851.99;;;9.27;68.36
58223;BME280;44020;50.890;15.796;2024-02-23T09:51:23;95857.73;;;9.28;68.52
58223;BME280;44020;50.890;15.796;2024-02-23T09:53:50;95865.52;;;9.26;68.29
58223;BME280;44020;50.890;15.796;2024-02-23T09:56:27;95873.69;;;9.26;68.36
58223;BME280;44020;50.890;15.796;2024-02-23T09:59:01;95870.86;;;9.26;68.19
58223;BME280;44020;50.890;15.796;2024-02-23T10:01:30;95870.43;;;9.27;68.05
58223;BME280;44020;50.890;15.796;2024-02-23T10:04:01;95871.84;;;9.25;67.86
58223;BME280;44020;50.890;15.796;2024-02-23T10:06:31;95875.45;;;9.24;67.80
58223;BME280;44020;50.890;15.796;2024-02-23T10:08:58;95877.54;;;9.25;67.81
58223;BME280;44020;50.890;15.796;2024-02-23T10:11:26;95887.67;;;9.25;67.59
58223;BME280;44020;50.890;15.796;2024-02-23T10:13:53;95903.69;;;9.22;67.27
58223;BME280;44020;50.890;15.796;2024-02-23T10:16:21;95909.52;;;9.20;67.07
58223;BME280;44020;50.890;15.796;2024-02-23T10:18:49;95918.07;;;9.18;67.00
58223;BME280;44020;50.890;15.796;2024-02-23T10:21:17;95919.13;;;9.14;66.92
58223;BME280;44020;50.890;15.796;2024-02-23T10:23:45;95912.50;;;9.09;66.82
58223;BME280;44020;50.890;15.796;2024-02-23T10:26:13;95915.00;;;9.07;66.62
58223;BME280;44020;50.890;15.796;2024-02-23T10:28:45;95913.06;;;9.05;66.76
58223;BME280;44020;50.890;15.796;2024-02-23T10:31:16;95910.36;;;9.06;66.76
58223;BME280;44020;50.890;15.796;2024-02-23T10:33:44;95911.71;;;9.04;66.66
58223;BME280;44020;50.890;15.796;2024-02-23T10:36:15;95914.95;;;9.02;66.61
58223;BME280;44020;50.890;15.796;2024-02-23T10:38:45;95908.50;;;9.01;66.75
58223;BME280;44020;50.890;15.796;2024-02-23T10:41:17;95901.83;;;9.02;66.87
58223;BME280;44020;50.890;15.796;2024-02-23T10:43:47;95892.94;;;9.03;66.59
58223;BME280;44020;50.890;15.796;2024-02-23T10:46:15;95888.19;;;9.00;66.48
58223;BME280;44020;50.890;15.796;2024-02-23T10:48:43;95891.64;;;9.01;66.67
58223;BME280;44020;50.890;15.796;2024-02-23T10:51:13;95886.29;;;9.04;66.62
58223;BME280;44020;50.890;15.796;2024-02-23T10:53:43;95887.62;;;9.06;66.64
58223;BME280;44020;50.890;15.796;2024-02-23T10:56:10;95880.54;;;9.08;66.62
58223;BME280;44020;50.890;15.796;2024-02-23T10:58:37;95875.73;;;9.10;66.51
58223;BME280;44020;50.890;15.796;2024-02-23T11:01:07;95867.30;;;9.11;66.29
58223;BME280;44020;50.890;15.796;2024-02-23T11:03:36;95856.27;;;9.13;66.20
58223;BME280;44020;50.890;15.796;2024-02-23T11:06:07;95848.54;;;9.17;66.41
58223;BME280;44020;50.890;15.796;2024-02-23T11:08:35;95857.02;;;9.19;66.23
58223;BME280;44020;50.890;15.796;2024-02-23T11:11:09;95864.00;;;9.18;66.25
58223;BME280;44020;50.890;15.796;2024-02-23T11:13:37;95872.80;;;9.21;66.15
58223;BME280;44020;50.890;15.796;2024-02-23T11:16:06;95875.88;;;9.24;66.16
58223;BME280;44020;50.890;15.796;2024-02-23T11:18:37;95886.00;;;9.27;66.05
58223;BME280;44020;50.890;15.796;2024-02-23T11:21:09;95895.58;;;9.31;65.82
58223;BME280;44020;50.890;15.796;2024-02-23T11:23:41;95912.05;;;9.35;65.66
58223;BME280;44020;50.890;15.796;2024-02-23T11:26:12;95918.14;;;9.40;65.58
58223;BME280;44020;50.890;15.796;2024-02-23T11:28:50;95910.59;;;9.47;65.51
58223;BME280;44020;50.890;15.796;2024-02-23T11:31:22;95915.63;;;9.53;65.52
58223;BME280;44020;50.890;15.796;2024-02-23T11:33:52;95911.98;;;9.58;65.28
58223;BME280;44020;50.890;15.796;2024-02-23T11:36:28;95911.02;;;9.64;65.31
58223;BME280;44020;50.890;15.796;2024-02-23T11:39:00;95910.68;;;9.72;65.32
58223;BME280;44020;50.890;15.796;2024-02-23T11:41:29;95920.38;;;9.82;65.41
58223;BME280;44020;50.890;15.796;2024-02-23T11:43:56;95908.42;;;9.91;64.97
58223;BME280;44020;50.890;15.796;2024-02-23T11:46:24;95913.92;;;10.01;64.80
58223;BME280;44020;50.890;15.796;2024-02-23T11:48:52;95927.42;;;10.14;64.74
58223;BME280;44020;50.890;15.796;2024-02-23T11:51:23;95934.02;;;10.22;64.24
58223;BME280;44020;50.890;15.796;2024-02-23T11:53:51;95938.72;;;10.27;64.10
58223;BME280;44020;50.890;15.796;2024-02-23T11:56:19;95940.67;;;10.33;63.59
58223;BME280;44020;50.890;15.796;2024-02-23T11:58:46;95942.47;;;10.32;63.33
58223;BME280;44020;50.890;15.796;2024-02-23T12:01:14;95949.42;;;10.32;63.08
58223;BME280;44020;50.890;15.796;2024-02-23T12:03:42;95951.88;;;10.34;63.01
58223;BME280;44020;50.890;15.796;2024-02-23T12:06:10;95950.38;;;10.38;63.03
58223;BME280;44020;50.890;15.796;2024-02-23T12:08:37;95951.66;;;10.42;62.66
58223;BME280;44020;50.890;15.796;2024-02-23T12:11:06;95952.80;;;10.50;62.95
58223;BME280;44020;50.890;15.796;2024-02-23T12:13:37;95959.52;;;10.56;62.86
58223;BME280;44020;50.890;15.796;2024-02-23T12:16:06;95962.41;;;10.61;62.96
58223;BME280;44020;50.890;15.796;2024-02-23T12:18:35;95965.73;;;10.69;62.36
58223;BME280;44020;50.890;15.796;2024-02-23T12:21:04;95971.83;;;10.75;61.87
58223;BME280;44020;50.890;15.796;2024-02-23T12:23:45;95971.13;;;10.77;61.32
58223;BME280;44020;50.890;15.796;2024-02-23T12:26:13;95965.14;;;10.78;60.77
58223;BME280;44020;50.890;15.796;2024-02-23T12:28:41;95964.73;;;10.79;60.30
58223;BME280;44020;50.890;15.796;2024-02-23T12:31:09;95969.56;;;10.75;59.52
58223;BME280;44020;50.890;15.796;2024-02-23T12:33:37;95971.73;;;10.67;58.91
58223;BME280;44020;50.890;15.796;2024-02-23T12:36:07;95971.86;;;10.57;58.52
58223;BME280;44020;50.890;15.796;2024-02-23T12:38:35;95968.77;;;10.52;58.60
58223;BME280;44020;50.890;15.796;2024-02-23T12:41:02;95973.42;;;10.50;58.66
58223;BME280;44020;50.890;15.796;2024-02-23T12:43:29;95967.18;;;10.49;58.49
58223;BME280;44020;50.890;15.796;2024-02-23T12:45:57;95957.07;;;10.47;58.28
58223;BME280;44020;50.890;15.796;2024-02-23T12:48:24;95961.02;;;10.44;58.30
58223;BME280;44020;50.890;15.796;2024-02-23T12:50:52;95952.19;;;10.42;57.96
58223;BME280;44020;50.890;15.796;2024-02-23T12:53:40;95951.59;;;10.39;57.80
58223;BME280;44020;50.890;15.796;2024-02-23T12:56:12;95955.64;;;10.34;57.64
58223;BME280;44020;50.890;15.796;2024-02-23T12:58:44;95963.64;;;10.32;57.67
58223;BME280;44020;50.890;15.796;2024-02-23T13:01:11;95956.61;;;10.29;57.39
58223;BME280;44020;50.890;15.796;2024-02-23T13:03:39;95961.56;;;10.26;57.39
58223;BME280;44020;50.890;15.796;2024-02-23T13:06:09;95964.02;;;10.20;57.28
58223;BME280;44020;50.890;15.796;2024-02-23T13:08:36;95964.25;;;10.14;57.27
58223;BME280;44020;50.890;15.796;2024-02-23T13:11:06;95965.62;;;10.11;57.23
58223;BME280;44020;50.890;15.796;2024-02-23T13:13:33;95969.29;;;10.04;57.03
58223;BME280;44020;50.890;15.796;2024-02-23T13:16:01;95959.98;;;9.98;57.30
58223;BME280;44020;50.890;15.796;2024-02-23T13:18:28;95953.90;;;9.95;57.24
58223;BME280;44020;50.890;15.796;2024-02-23T13:20:55;95951.88;;;9.92;57.34
58223;BME280;44020;50.890;15.796;2024-02-23T13:23:23;95950.20;;;9.89;57.56
58223;BME280;44020;50.890;15.796;2024-02-23T13:25:50;95950.48;;;9.87;57.50
58223;BME280;44020;50.890;15.796;2024-02-23T13:28:17;95946.59;;;9.86;57.78
58223;BME280;44020;50.890;15.796;2024-02-23T13:30:44;95948.33;;;9.84;57.79
58223;BME280;44020;50.890;15.796;2024-02-23T13:33:12;95944.56;;;9.85;58.09
58223;BME280;44020;50.890;15.796;2024-02-23T13:35:39;95940.08;;;9.85;57.99